createdAt,value
2023-12-17T00:02:15.230Z,3.10
2023-12-17T00:07:14.871Z,3.20
2023-12-17T00:12:14.891Z,3.60
2023-12-17T00:17:14.744Z,3.30
2023-12-17T00:22:14.752Z,3.60
2023-12-17T00:27:14.714Z,3.30
2023-12-17T00:32:14.551Z,3.30
2023-12-17T00:37:14.444Z,3.10
2023-12-17T00:42:14.452Z,3.10
2023-12-17T00:47:14.336Z,3.20
2023-12-17T00:52:14.262Z,3.00
2023-12-17T00:57:14.241Z,3.70
2023-12-17T01:02:14.152Z,3.50
2023-12-17T01:07:14.072Z,3.60
2023-12-17T01:12:14.062Z,3.10
2023-12-17T01:17:13.929Z,3.00
2023-12-17T01:22:13.867Z,3.30
2023-12-17T01:27:14.010Z,3.10
2023-12-17T01:32:13.724Z,3.10
2023-12-17T01:37:13.641Z,2.70
2023-12-17T01:42:13.668Z,3.00
2023-12-17T01:47:13.505Z,3.70
2023-12-17T01:52:13.439Z,3.20
2023-12-17T01:57:13.421Z,2.70
2023-12-17T02:02:13.299Z,2.80
2023-12-17T02:07:13.280Z,2.60
2023-12-17T02:12:13.192Z,3.00
2023-12-17T02:17:13.136Z,3.10
2023-12-17T02:22:13.079Z,2.80
2023-12-17T02:27:13.038Z,3.00
2023-12-17T02:32:12.955Z,3.00
2023-12-17T02:37:12.874Z,2.80
2023-12-17T02:42:12.902Z,2.60
2023-12-17T02:47:12.772Z,2.70
2023-12-17T02:52:12.698Z,3.00
2023-12-17T02:57:12.668Z,2.80
2023-12-17T03:02:12.573Z,2.80
2023-12-17T03:07:12.511Z,3.30
2023-12-17T03:12:12.499Z,2.80
2023-12-17T03:17:12.461Z,2.50
2023-12-17T03:22:12.313Z,2.60
2023-12-17T03:27:12.375Z,2.80
2023-12-17T03:32:12.193Z,2.80
2023-12-17T03:37:12.100Z,2.50
2023-12-17T03:42:12.068Z,3.00
2023-12-17T03:47:11.964Z,3.00
2023-12-17T03:52:11.917Z,2.70
2023-12-17T03:57:11.939Z,3.00
2023-12-17T04:02:11.828Z,3.00
2023-12-17T04:07:11.685Z,3.10
2023-12-17T04:12:11.711Z,2.90
2023-12-17T04:17:11.552Z,3.60
2023-12-17T04:22:11.497Z,3.30
2023-12-17T04:27:11.701Z,3.30
2023-12-17T04:32:11.341Z,2.80
2023-12-17T04:37:11.275Z,2.90
2023-12-17T04:42:11.233Z,3.00
2023-12-17T04:47:11.203Z,3.20
2023-12-17T04:52:11.095Z,2.90
2023-12-17T04:57:11.109Z,2.90
2023-12-17T05:02:10.982Z,3.40
2023-12-17T05:07:10.880Z,3.40
2023-12-17T05:12:10.900Z,3.30
2023-12-17T05:17:10.731Z,3.40
2023-12-17T05:22:10.736Z,3.20
2023-12-17T05:27:10.740Z,3.20
2023-12-17T05:32:10.603Z,3.30
2023-12-17T05:37:10.516Z,3.50
2023-12-17T05:42:10.508Z,3.70
2023-12-17T05:47:10.377Z,4.00
2023-12-17T05:52:10.337Z,3.90
2023-12-17T05:57:10.268Z,4.10
2023-12-17T06:02:10.223Z,4.20
2023-12-17T06:07:10.155Z,4.30
2023-12-17T06:12:10.223Z,4.60
2023-12-17T06:17:10.078Z,4.20
2023-12-17T06:22:09.958Z,3.70
2023-12-17T06:27:09.890Z,4.00
2023-12-17T06:32:10.649Z,4.70
2023-12-17T06:37:09.745Z,4.70
2023-12-17T06:42:09.736Z,4.70
2023-12-17T06:47:18.115Z,4.70
2023-12-17T06:52:10.628Z,5.40
2023-12-17T06:57:09.473Z,5.00
2023-12-17T07:02:09.413Z,5.90
2023-12-17T07:07:09.326Z,5.20
2023-12-17T07:12:09.303Z,5.70
2023-12-17T07:17:09.236Z,5.50
2023-12-17T07:22:09.229Z,5.40
2023-12-17T07:27:09.172Z,5.80
2023-12-17T07:32:09.060Z,5.90
2023-12-17T07:37:08.959Z,5.50
2023-12-17T07:42:08.926Z,5.70
2023-12-17T07:47:08.935Z,5.60
2023-12-17T07:52:08.725Z,6.10
2023-12-17T07:57:08.675Z,5.70
2023-12-17T08:02:09.205Z,6.00
2023-12-17T08:07:08.656Z,6.10
2023-12-17T08:12:08.676Z,6.10
2023-12-17T08:17:08.408Z,5.60
2023-12-17T08:22:08.539Z,6.40
2023-12-17T08:27:08.368Z,6.20
2023-12-17T08:32:08.204Z,6.60
2023-12-17T08:37:08.107Z,6.70
2023-12-17T08:42:08.968Z,6.60
2023-12-17T08:47:07.984Z,6.30
2023-12-17T08:52:07.971Z,6.80
2023-12-17T08:57:07.958Z,6.00
2023-12-17T09:02:09.105Z,5.90
2023-12-17T09:07:07.721Z,7.00
2023-12-17T09:12:07.712Z,6.40
2023-12-17T09:17:07.625Z,6.70
2023-12-17T09:22:07.533Z,6.10
2023-12-17T09:27:07.509Z,6.70
2023-12-17T09:32:07.409Z,6.50
2023-12-17T09:37:07.336Z,7.20
2023-12-17T09:42:07.305Z,6.50
2023-12-17T09:47:07.213Z,7.00
2023-12-17T09:52:07.155Z,6.80
2023-12-17T09:57:07.116Z,6.70
2023-12-17T10:02:07.033Z,6.80
2023-12-17T10:07:06.936Z,7.20
2023-12-17T10:12:07.009Z,7.70
2023-12-17T10:17:06.807Z,7.10
2023-12-17T10:22:06.728Z,6.40
2023-12-17T10:27:06.714Z,6.20
2023-12-17T10:32:06.648Z,7.70
2023-12-17T10:37:06.570Z,7.40
2023-12-17T10:42:06.574Z,7.40
2023-12-17T10:47:06.433Z,7.00
2023-12-17T10:52:06.413Z,7.00
2023-12-17T10:57:06.287Z,6.50
2023-12-17T11:02:06.194Z,6.40
2023-12-17T11:07:06.135Z,6.30
2023-12-17T11:12:06.170Z,5.80
2023-12-17T11:17:06.031Z,4.00
2023-12-17T11:22:06.100Z,4.00
2023-12-17T11:27:05.962Z,4.20
2023-12-17T11:32:05.812Z,4.60
2023-12-17T11:37:05.755Z,4.80
2023-12-17T11:42:05.715Z,4.90
2023-12-17T11:47:05.633Z,6.00
2023-12-17T11:52:05.555Z,4.40
2023-12-17T11:57:05.498Z,4.40
2023-12-17T12:02:05.424Z,4.20
2023-12-17T12:07:05.334Z,4.10
2023-12-17T12:12:05.272Z,4.30
2023-12-17T12:17:05.483Z,3.80
2023-12-17T12:22:05.180Z,3.70
2023-12-17T12:27:05.184Z,3.60
2023-12-17T12:32:05.007Z,3.60
2023-12-17T12:37:04.958Z,3.10
2023-12-17T12:42:04.926Z,3.90
2023-12-17T12:47:04.814Z,4.00
2023-12-17T12:52:04.754Z,4.40
2023-12-17T12:57:04.799Z,4.90
2023-12-17T13:02:04.617Z,4.80
2023-12-17T13:07:04.656Z,4.50
2023-12-17T13:12:04.567Z,4.80
2023-12-17T13:17:04.415Z,5.30
2023-12-17T13:22:04.386Z,4.50
2023-12-17T13:27:04.311Z,5.30
2023-12-17T13:32:04.223Z,4.60
2023-12-17T13:42:04.143Z,4.70
2023-12-17T13:47:04.101Z,4.80
2023-12-17T13:52:03.964Z,4.40
2023-12-17T13:57:03.921Z,4.00
2023-12-17T14:02:03.819Z,4.50
2023-12-17T14:07:03.754Z,4.30
2023-12-17T14:12:03.697Z,4.80
2023-12-17T14:17:03.627Z,4.70
2023-12-17T14:22:03.547Z,4.60
2023-12-17T14:27:03.613Z,4.90
2023-12-17T14:32:03.400Z,4.50
2023-12-17T14:37:03.362Z,4.60
2023-12-17T14:42:03.332Z,4.20
2023-12-17T14:47:03.555Z,4.80
2023-12-17T14:52:03.441Z,4.90
2023-12-17T14:57:03.459Z,4.80
2023-12-17T15:02:03.023Z,5.10
2023-12-17T15:07:02.961Z,5.10
2023-12-17T15:12:02.926Z,5.10
2023-12-17T15:17:03.116Z,5.50
2023-12-17T15:22:02.731Z,5.60
2023-12-17T15:27:02.781Z,5.90
2023-12-17T15:32:02.957Z,6.10
2023-12-17T15:37:02.548Z,5.80
2023-12-17T15:42:02.476Z,5.70
2023-12-17T15:47:02.692Z,6.10
2023-12-17T15:52:02.309Z,6.50
2023-12-17T15:57:02.327Z,6.50
2023-12-17T16:02:02.180Z,6.70
2023-12-17T16:07:02.176Z,6.60
2023-12-17T16:12:02.212Z,7.00
2023-12-17T16:17:02.018Z,7.20
2023-12-17T16:22:01.953Z,7.40
2023-12-17T16:27:01.952Z,7.50
2023-12-17T16:32:01.882Z,8.80
2023-12-17T16:37:01.746Z,7.40
2023-12-17T16:42:01.691Z,7.40
2023-12-17T16:47:01.630Z,7.70
2023-12-17T16:52:01.576Z,7.40
2023-12-17T16:57:01.604Z,8.20
2023-12-17T17:02:01.491Z,8.60
2023-12-17T17:07:01.359Z,8.00
2023-12-17T17:12:01.295Z,8.30
2023-12-17T17:17:01.252Z,7.80
2023-12-17T17:22:01.168Z,7.90
2023-12-17T17:27:01.183Z,8.10
2023-12-17T17:32:01.035Z,8.50
2023-12-17T17:37:01.114Z,8.70
2023-12-17T17:42:00.895Z,8.20
2023-12-17T17:47:00.795Z,8.30
2023-12-17T17:52:00.769Z,9.30
2023-12-17T17:57:00.693Z,9.50
2023-12-17T18:02:00.644Z,8.60
2023-12-17T18:07:00.561Z,9.60
2023-12-17T18:12:00.549Z,10.00
2023-12-17T18:17:00.415Z,8.90
2023-12-17T18:22:00.323Z,9.30
2023-12-17T18:27:00.408Z,9.80
2023-12-17T18:32:00.220Z,10.40
2023-12-17T18:37:00.206Z,10.10
2023-12-17T18:42:01.106Z,9.70
2023-12-17T18:47:00.347Z,9.90
2023-12-17T18:51:59.912Z,9.90
2023-12-17T18:56:59.994Z,10.60
2023-12-17T19:02:01.252Z,11.50
2023-12-17T19:06:59.777Z,10.40
2023-12-17T19:11:59.667Z,11.70
2023-12-17T19:16:59.642Z,11.30
2023-12-17T19:21:59.595Z,11.00
2023-12-17T19:26:59.508Z,11.40
2023-12-17T19:31:59.457Z,12.20
2023-12-17T19:36:59.383Z,12.30
2023-12-17T19:41:59.400Z,11.80
2023-12-17T19:46:59.222Z,11.80
2023-12-17T19:51:59.188Z,12.10
2023-12-17T19:57:00.034Z,12.50
2023-12-17T20:01:59.220Z,12.60
2023-12-17T20:06:59.251Z,12.90
2023-12-17T20:11:58.925Z,12.40
2023-12-17T20:16:58.868Z,12.60
2023-12-17T20:21:58.781Z,13.60
2023-12-17T20:26:58.749Z,13.60
2023-12-17T20:31:58.654Z,13.60
2023-12-17T20:36:58.607Z,13.40
2023-12-17T20:41:59.423Z,13.50
2023-12-17T20:46:58.714Z,13.40
2023-12-17T20:51:59.614Z,13.90
2023-12-17T20:56:58.532Z,13.20
2023-12-17T21:01:58.881Z,12.70
2023-12-17T21:06:58.177Z,13.30
2023-12-17T21:11:58.165Z,14.00
2023-12-17T21:16:58.074Z,13.80
2023-12-17T21:21:57.973Z,13.90
2023-12-17T21:26:58.619Z,13.90
2023-12-17T21:31:57.859Z,13.40
2023-12-17T21:36:57.838Z,14.00
2023-12-17T21:41:57.748Z,13.90
2023-12-17T21:46:57.685Z,13.40
2023-12-17T21:51:57.591Z,15.30
2023-12-17T21:57:16.936Z,13.80
2023-12-17T22:01:58.461Z,11.80
2023-12-17T22:06:57.381Z,11.50
2023-12-17T22:11:57.435Z,11.50
2023-12-17T22:16:57.355Z,12.40
2023-12-17T22:21:57.378Z,13.80
2023-12-17T22:26:57.161Z,13.30
2023-12-17T22:31:57.170Z,13.20
2023-12-17T22:36:57.056Z,13.20
2023-12-17T22:41:56.969Z,12.20
2023-12-17T22:46:56.880Z,11.80
2023-12-17T22:51:56.796Z,11.60
2023-12-17T22:56:57.438Z,10.40
2023-12-17T23:01:56.626Z,8.70
2023-12-17T23:06:56.600Z,9.40
2023-12-17T23:11:56.546Z,8.30
2023-12-17T23:16:56.697Z,6.90
2023-12-17T23:21:56.417Z,6.40
2023-12-17T23:26:56.330Z,7.60
2023-12-17T23:31:56.267Z,7.10
2023-12-17T23:36:57.196Z,7.90
2023-12-17T23:41:56.173Z,7.50
2023-12-17T23:46:56.132Z,8.00
2023-12-17T23:51:56.027Z,8.20
2023-12-17T23:56:56.166Z,9.00
